sensor_id;sensor_type;location;lat;lon;timestamp;P1;durP1;ratioP1;P2;durP2;ratioP2
42726;SDS011;28372;56.832;60.658;2023-06-14T00:01:50;8.50;;;4.15;;
42726;SDS011;28372;56.832;60.658;2023-06-14T00:04:18;7.55;;;4.10;;
42726;SDS011;28372;56.832;60.658;2023-06-14T00:06:47;8.07;;;3.70;;
42726;SDS011;28372;56.832;60.658;2023-06-14T00:09:18;7.90;;;3.90;;
42726;SDS011;28372;56.832;60.658;2023-06-14T00:11:45;8.73;;;3.75;;
42726;SDS011;28372;56.832;60.658;2023-06-14T00:14:13;8.18;;;3.80;;
42726;SDS011;28372;56.832;60.658;2023-06-14T00:16:41;8.77;;;3.83;;
42726;SDS011;28372;56.832;60.658;2023-06-14T00:19:09;7.55;;;3.55;;
42726;SDS011;28372;56.832;60.658;2023-06-14T00:21:37;10.35;;;4.03;;
42726;SDS011;28372;56.832;60.658;2023-06-14T00:24:07;7.40;;;3.90;;
42726;SDS011;28372;56.832;60.658;2023-06-14T00:26:35;7.82;;;3.65;;
42726;SDS011;28372;56.832;60.658;2023-06-14T00:29:02;8.32;;;3.97;;
42726;SDS011;28372;56.832;60.658;2023-06-14T00:31:30;13.43;;;4.30;;
42726;SDS011;28372;56.832;60.658;2023-06-14T00:33:57;9.85;;;3.72;;
42726;SDS011;28372;56.832;60.658;2023-06-14T00:36:25;7.22;;;4.00;;
42726;SDS011;28372;56.832;60.658;2023-06-14T00:38:53;8.30;;;3.80;;
42726;SDS011;28372;56.832;60.658;2023-06-14T00:41:21;7.03;;;3.65;;
42726;SDS011;28372;56.832;60.658;2023-06-14T00:43:49;8.15;;;3.45;;
42726;SDS011;28372;56.832;60.658;2023-06-14T00:46:17;6.65;;;3.53;;
42726;SDS011;28372;56.832;60.658;2023-06-14T00:48:46;9.18;;;3.70;;
42726;SDS011;28372;56.832;60.658;2023-06-14T00:51:15;8.45;;;3.65;;
42726;SDS011;28372;56.832;60.658;2023-06-14T00:53:44;8.70;;;4.05;;
42726;SDS011;28372;56.832;60.658;2023-06-14T00:56:16;8.13;;;3.63;;
42726;SDS011;28372;56.832;60.658;2023-06-14T00:58:43;7.80;;;3.85;;
42726;SDS011;28372;56.832;60.658;2023-06-14T01:01:11;6.93;;;4.30;;
42726;SDS011;28372;56.832;60.658;2023-06-14T01:03:39;10.68;;;4.10;;
42726;SDS011;28372;56.832;60.658;2023-06-14T01:08:50;7.78;;;4.00;;
42726;SDS011;28372;56.832;60.658;2023-06-14T01:11:25;8.10;;;4.20;;
42726;SDS011;28372;56.832;60.658;2023-06-14T01:13:59;8.75;;;4.30;;
42726;SDS011;28372;56.832;60.658;2023-06-14T01:16:29;9.80;;;3.92;;
42726;SDS011;28372;56.832;60.658;2023-06-14T01:18:59;8.13;;;3.97;;
42726;SDS011;28372;56.832;60.658;2023-06-14T01:21:29;8.25;;;4.25;;
42726;SDS011;28372;56.832;60.658;2023-06-14T01:23:56;8.95;;;4.32;;
42726;SDS011;28372;56.832;60.658;2023-06-14T01:26:25;9.60;;;4.60;;
42726;SDS011;28372;56.832;60.658;2023-06-14T01:31:26;12.63;;;4.25;;
42726;SDS011;28372;56.832;60.658;2023-06-14T01:33:56;13.45;;;4.13;;
42726;SDS011;28372;56.832;60.658;2023-06-14T01:36:24;9.43;;;3.95;;
42726;SDS011;28372;56.832;60.658;2023-06-14T01:38:56;6.63;;;4.03;;
42726;SDS011;28372;56.832;60.658;2023-06-14T01:41:26;8.80;;;4.30;;
42726;SDS011;28372;56.832;60.658;2023-06-14T01:43:55;8.73;;;3.90;;
42726;SDS011;28372;56.832;60.658;2023-06-14T01:46:25;8.43;;;4.18;;
42726;SDS011;28372;56.832;60.658;2023-06-14T01:48:54;10.60;;;4.10;;
42726;SDS011;28372;56.832;60.658;2023-06-14T01:51:22;7.40;;;4.00;;
42726;SDS011;28372;56.832;60.658;2023-06-14T01:53:49;9.95;;;3.80;;
42726;SDS011;28372;56.832;60.658;2023-06-14T01:56:17;10.50;;;4.10;;
42726;SDS011;28372;56.832;60.658;2023-06-14T01:58:47;9.68;;;4.47;;
42726;SDS011;28372;56.832;60.658;2023-06-14T02:01:15;7.90;;;4.10;;
42726;SDS011;28372;56.832;60.658;2023-06-14T02:03:44;10.73;;;3.77;;
42726;SDS011;28372;56.832;60.658;2023-06-14T02:06:15;11.30;;;4.30;;
42726;SDS011;28372;56.832;60.658;2023-06-14T02:08:42;9.25;;;4.25;;
42726;SDS011;28372;56.832;60.658;2023-06-14T02:11:10;7.85;;;3.80;;
42726;SDS011;28372;56.832;60.658;2023-06-14T02:13:38;11.63;;;3.63;;
42726;SDS011;28372;56.832;60.658;2023-06-14T02:16:05;10.18;;;3.60;;
42726;SDS011;28372;56.832;60.658;2023-06-14T02:18:34;9.88;;;3.70;;
42726;SDS011;28372;56.832;60.658;2023-06-14T02:21:21;8.00;;;3.58;;
42726;SDS011;28372;56.832;60.658;2023-06-14T02:23:49;11.43;;;4.00;;
42726;SDS011;28372;56.832;60.658;2023-06-14T02:26:17;7.63;;;3.60;;
42726;SDS011;28372;56.832;60.658;2023-06-14T02:28:44;7.82;;;3.40;;
42726;SDS011;28372;56.832;60.658;2023-06-14T02:31:12;9.18;;;3.78;;
42726;SDS011;28372;56.832;60.658;2023-06-14T02:33:40;11.55;;;3.78;;
42726;SDS011;28372;56.832;60.658;2023-06-14T02:36:07;10.85;;;4.18;;
42726;SDS011;28372;56.832;60.658;2023-06-14T02:38:35;11.82;;;3.90;;
42726;SDS011;28372;56.832;60.658;2023-06-14T02:41:02;10.95;;;3.80;;
42726;SDS011;28372;56.832;60.658;2023-06-14T02:43:31;9.90;;;4.22;;
42726;SDS011;28372;56.832;60.658;2023-06-14T02:45:58;13.50;;;4.20;;
42726;SDS011;28372;56.832;60.658;2023-06-14T02:48:27;12.25;;;4.10;;
42726;SDS011;28372;56.832;60.658;2023-06-14T02:50:55;8.18;;;3.80;;
42726;SDS011;28372;56.832;60.658;2023-06-14T02:53:23;8.88;;;3.72;;
42726;SDS011;28372;56.832;60.658;2023-06-14T02:55:51;8.23;;;3.75;;
42726;SDS011;28372;56.832;60.658;2023-06-14T02:58:19;9.32;;;3.90;;
42726;SDS011;28372;56.832;60.658;2023-06-14T03:00:47;11.82;;;3.90;;
42726;SDS011;28372;56.832;60.658;2023-06-14T03:03:15;10.18;;;3.83;;
42726;SDS011;28372;56.832;60.658;2023-06-14T03:05:50;9.88;;;3.50;;
42726;SDS011;28372;56.832;60.658;2023-06-14T03:08:23;12.07;;;3.40;;
42726;SDS011;28372;56.832;60.658;2023-06-14T03:10:56;9.10;;;3.28;;
42726;SDS011;28372;56.832;60.658;2023-06-14T03:13:26;8.13;;;2.95;;
42726;SDS011;28372;56.832;60.658;2023-06-14T03:15:54;9.93;;;3.13;;
42726;SDS011;28372;56.832;60.658;2023-06-14T03:18:24;7.35;;;2.72;;
42726;SDS011;28372;56.832;60.658;2023-06-14T03:20:55;7.45;;;2.67;;
42726;SDS011;28372;56.832;60.658;2023-06-14T03:23:26;7.00;;;3.13;;
42726;SDS011;28372;56.832;60.658;2023-06-14T03:25:54;15.00;;;3.28;;
42726;SDS011;28372;56.832;60.658;2023-06-14T03:28:23;9.77;;;3.10;;
42726;SDS011;28372;56.832;60.658;2023-06-14T03:30:52;10.68;;;2.97;;
42726;SDS011;28372;56.832;60.658;2023-06-14T03:33:21;11.10;;;2.70;;
42726;SDS011;28372;56.832;60.658;2023-06-14T03:35:48;9.77;;;3.00;;
42726;SDS011;28372;56.832;60.658;2023-06-14T03:38:16;8.15;;;2.90;;
42726;SDS011;28372;56.832;60.658;2023-06-14T03:40:45;9.80;;;2.97;;
42726;SDS011;28372;56.832;60.658;2023-06-14T03:43:13;8.90;;;2.63;;
42726;SDS011;28372;56.832;60.658;2023-06-14T03:45:41;10.40;;;3.10;;
42726;SDS011;28372;56.832;60.658;2023-06-14T03:48:09;9.20;;;2.72;;
42726;SDS011;28372;56.832;60.658;2023-06-14T03:50:37;6.30;;;2.70;;
42726;SDS011;28372;56.832;60.658;2023-06-14T03:53:05;6.72;;;2.63;;
42726;SDS011;28372;56.832;60.658;2023-06-14T03:55:36;7.10;;;2.30;;
42726;SDS011;28372;56.832;60.658;2023-06-14T03:58:25;9.07;;;2.53;;
42726;SDS011;28372;56.832;60.658;2023-06-14T04:00:53;8.35;;;2.63;;
42726;SDS011;28372;56.832;60.658;2023-06-14T04:03:21;6.10;;;2.33;;
42726;SDS011;28372;56.832;60.658;2023-06-14T04:05:59;5.97;;;2.10;;
42726;SDS011;28372;56.832;60.658;2023-06-14T04:08:27;6.22;;;2.50;;
42726;SDS011;28372;56.832;60.658;2023-06-14T04:10:57;5.15;;;2.78;;
42726;SDS011;28372;56.832;60.658;2023-06-14T04:13:25;5.70;;;2.47;;
42726;SDS011;28372;56.832;60.658;2023-06-14T04:15:52;10.65;;;2.70;;
42726;SDS011;28372;56.832;60.658;2023-06-14T04:18:26;6.05;;;2.85;;
42726;SDS011;28372;56.832;60.658;2023-06-14T04:20:55;5.47;;;2.50;;
42726;SDS011;28372;56.832;60.658;2023-06-14T04:23:23;8.63;;;3.13;;
42726;SDS011;28372;56.832;60.658;2023-06-14T04:25:51;6.93;;;2.70;;
42726;SDS011;28372;56.832;60.658;2023-06-14T04:28:18;6.47;;;2.67;;
42726;SDS011;28372;56.832;60.658;2023-06-14T04:30:47;5.80;;;2.30;;
42726;SDS011;28372;56.832;60.658;2023-06-14T04:33:17;6.07;;;2.33;;
42726;SDS011;28372;56.832;60.658;2023-06-14T04:35:45;7.05;;;2.50;;
42726;SDS011;28372;56.832;60.658;2023-06-14T04:38:17;5.93;;;2.13;;
42726;SDS011;28372;56.832;60.658;2023-06-14T04:40:45;5.10;;;1.92;;
42726;SDS011;28372;56.832;60.658;2023-06-14T04:43:17;4.45;;;2.05;;
42726;SDS011;28372;56.832;60.658;2023-06-14T04:45:47;3.92;;;2.10;;
42726;SDS011;28372;56.832;60.658;2023-06-14T04:48:16;4.05;;;2.00;;
42726;SDS011;28372;56.832;60.658;2023-06-14T04:50:48;3.47;;;1.95;;
42726;SDS011;28372;56.832;60.658;2023-06-14T04:53:20;5.20;;;2.10;;
42726;SDS011;28372;56.832;60.658;2023-06-14T04:55:53;5.65;;;2.13;;
42726;SDS011;28372;56.832;60.658;2023-06-14T04:58:24;4.60;;;1.90;;
42726;SDS011;28372;56.832;60.658;2023-06-14T05:00:52;5.15;;;1.90;;
42726;SDS011;28372;56.832;60.658;2023-06-14T05:03:20;3.60;;;1.92;;
42726;SDS011;28372;56.832;60.658;2023-06-14T05:05:48;5.32;;;2.00;;
42726;SDS011;28372;56.832;60.658;2023-06-14T05:08:16;4.30;;;1.65;;
42726;SDS011;28372;56.832;60.658;2023-06-14T05:10:45;4.65;;;1.80;;
42726;SDS011;28372;56.832;60.658;2023-06-14T05:13:12;4.97;;;1.83;;
42726;SDS011;28372;56.832;60.658;2023-06-14T05:15:40;4.80;;;1.77;;
42726;SDS011;28372;56.832;60.658;2023-06-14T05:18:08;4.47;;;1.60;;
42726;SDS011;28372;56.832;60.658;2023-06-14T05:20:36;5.20;;;1.80;;
42726;SDS011;28372;56.832;60.658;2023-06-14T05:23:04;4.10;;;1.80;;
42726;SDS011;28372;56.832;60.658;2023-06-14T05:25:32;4.90;;;1.80;;
42726;SDS011;28372;56.832;60.658;2023-06-14T05:27:59;5.75;;;1.85;;
42726;SDS011;28372;56.832;60.658;2023-06-14T05:30:27;4.18;;;1.70;;
42726;SDS011;28372;56.832;60.658;2023-06-14T05:32:57;5.35;;;1.70;;
42726;SDS011;28372;56.832;60.658;2023-06-14T05:35:25;12.27;;;2.03;;
42726;SDS011;28372;56.832;60.658;2023-06-14T05:37:53;6.00;;;1.90;;
42726;SDS011;28372;56.832;60.658;2023-06-14T05:40:21;4.50;;;1.90;;
42726;SDS011;28372;56.832;60.658;2023-06-14T05:42:49;6.38;;;1.70;;
42726;SDS011;28372;56.832;60.658;2023-06-14T05:45:16;3.47;;;1.63;;
42726;SDS011;28372;56.832;60.658;2023-06-14T05:47:44;6.30;;;1.42;;
42726;SDS011;28372;56.832;60.658;2023-06-14T05:50:12;7.18;;;1.50;;
42726;SDS011;28372;56.832;60.658;2023-06-14T05:52:39;4.97;;;1.42;;
42726;SDS011;28372;56.832;60.658;2023-06-14T05:55:07;4.78;;;1.70;;
42726;SDS011;28372;56.832;60.658;2023-06-14T05:57:35;3.38;;;1.20;;
42726;SDS011;28372;56.832;60.658;2023-06-14T06:00:02;3.70;;;1.60;;
42726;SDS011;28372;56.832;60.658;2023-06-14T06:02:42;2.92;;;1.40;;
42726;SDS011;28372;56.832;60.658;2023-06-14T06:05:11;5.13;;;1.48;;
42726;SDS011;28372;56.832;60.658;2023-06-14T06:07:40;6.15;;;1.65;;
42726;SDS011;28372;56.832;60.658;2023-06-14T06:10:08;4.38;;;1.52;;
42726;SDS011;28372;56.832;60.658;2023-06-14T06:12:36;3.65;;;1.55;;
42726;SDS011;28372;56.832;60.658;2023-06-14T06:15:03;4.53;;;1.70;;
42726;SDS011;28372;56.832;60.658;2023-06-14T06:17:31;3.25;;;1.50;;
42726;SDS011;28372;56.832;60.658;2023-06-14T06:20:19;6.00;;;1.63;;
42726;SDS011;28372;56.832;60.658;2023-06-14T06:22:48;4.20;;;1.52;;
42726;SDS011;28372;56.832;60.658;2023-06-14T06:25:15;2.70;;;1.45;;
42726;SDS011;28372;56.832;60.658;2023-06-14T06:27:44;3.08;;;1.25;;
42726;SDS011;28372;56.832;60.658;2023-06-14T06:30:12;5.72;;;1.60;;
42726;SDS011;28372;56.832;60.658;2023-06-14T06:32:40;5.57;;;1.60;;
42726;SDS011;28372;56.832;60.658;2023-06-14T06:35:08;4.45;;;1.45;;
42726;SDS011;28372;56.832;60.658;2023-06-14T06:37:39;2.95;;;1.42;;
42726;SDS011;28372;56.832;60.658;2023-06-14T06:40:07;5.18;;;1.65;;
42726;SDS011;28372;56.832;60.658;2023-06-14T06:42:35;3.22;;;1.50;;
42726;SDS011;28372;56.832;60.658;2023-06-14T06:45:04;3.33;;;1.60;;
42726;SDS011;28372;56.832;60.658;2023-06-14T06:47:33;3.45;;;1.60;;
42726;SDS011;28372;56.832;60.658;2023-06-14T06:50:01;4.63;;;1.50;;
42726;SDS011;28372;56.832;60.658;2023-06-14T06:52:30;5.40;;;1.50;;
42726;SDS011;28372;56.832;60.658;2023-06-14T06:54:58;2.50;;;1.42;;
42726;SDS011;28372;56.832;60.658;2023-06-14T06:57:25;2.78;;;1.50;;
42726;SDS011;28372;56.832;60.658;2023-06-14T06:59:53;3.40;;;1.70;;
42726;SDS011;28372;56.832;60.658;2023-06-14T07:02:21;3.65;;;1.48;;
42726;SDS011;28372;56.832;60.658;2023-06-14T07:04:49;3.85;;;1.40;;
42726;SDS011;28372;56.832;60.658;2023-06-14T07:07:17;4.05;;;1.42;;
42726;SDS011;28372;56.832;60.658;2023-06-14T07:09:44;6.32;;;1.40;;
42726;SDS011;28372;56.832;60.658;2023-06-14T07:12:12;4.05;;;1.63;;
42726;SDS011;28372;56.832;60.658;2023-06-14T07:14:40;8.07;;;1.73;;
42726;SDS011;28372;56.832;60.658;2023-06-14T07:17:07;6.47;;;1.70;;
42726;SDS011;28372;56.832;60.658;2023-06-14T07:19:36;4.53;;;1.70;;
42726;SDS011;28372;56.832;60.658;2023-06-14T07:22:07;4.90;;;1.80;;
42726;SDS011;28372;56.832;60.658;2023-06-14T07:24:35;4.10;;;1.90;;
42726;SDS011;28372;56.832;60.658;2023-06-14T07:27:03;3.70;;;1.52;;
42726;SDS011;28372;56.832;60.658;2023-06-14T07:29:31;3.58;;;1.50;;
42726;SDS011;28372;56.832;60.658;2023-06-14T07:31:58;4.68;;;1.40;;
42726;SDS011;28372;56.832;60.658;2023-06-14T07:34:26;3.85;;;1.80;;
42726;SDS011;28372;56.832;60.658;2023-06-14T07:36:54;3.47;;;1.65;;
42726;SDS011;28372;56.832;60.658;2023-06-14T07:39:22;3.78;;;1.52;;
42726;SDS011;28372;56.832;60.658;2023-06-14T07:41:50;5.95;;;1.50;;
42726;SDS011;28372;56.832;60.658;2023-06-14T07:44:17;5.18;;;1.70;;
42726;SDS011;28372;56.832;60.658;2023-06-14T07:46:45;3.05;;;1.50;;
42726;SDS011;28372;56.832;60.658;2023-06-14T07:49:16;5.05;;;1.77;;
42726;SDS011;28372;56.832;60.658;2023-06-14T07:51:44;8.75;;;1.70;;
42726;SDS011;28372;56.832;60.658;2023-06-14T07:54:13;3.95;;;1.60;;
42726;SDS011;28372;56.832;60.658;2023-06-14T07:56:41;2.42;;;1.40;;
42726;SDS011;28372;56.832;60.658;2023-06-14T07:59:10;6.78;;;1.90;;
42726;SDS011;28372;56.832;60.658;2023-06-14T08:01:38;3.88;;;1.70;;
42726;SDS011;28372;56.832;60.658;2023-06-14T08:04:06;2.50;;;1.55;;
42726;SDS011;28372;56.832;60.658;2023-06-14T08:06:34;4.22;;;1.63;;
42726;SDS011;28372;56.832;60.658;2023-06-14T08:09:01;3.30;;;1.60;;
42726;SDS011;28372;56.832;60.658;2023-06-14T08:11:29;4.03;;;1.55;;
42726;SDS011;28372;56.832;60.658;2023-06-14T08:13:57;3.90;;;1.40;;
42726;SDS011;28372;56.832;60.658;2023-06-14T08:16:24;4.53;;;1.58;;
42726;SDS011;28372;56.832;60.658;2023-06-14T08:18:52;2.85;;;1.50;;
42726;SDS011;28372;56.832;60.658;2023-06-14T08:21:20;3.13;;;1.50;;
42726;SDS011;28372;56.832;60.658;2023-06-14T08:23:47;2.38;;;1.70;;
42726;SDS011;28372;56.832;60.658;2023-06-14T08:26:15;3.83;;;1.42;;
42726;SDS011;28372;56.832;60.658;2023-06-14T08:28:43;7.43;;;1.70;;
42726;SDS011;28372;56.832;60.658;2023-06-14T08:31:10;7.50;;;1.80;;
42726;SDS011;28372;56.832;60.658;2023-06-14T08:33:38;5.75;;;1.65;;
42726;SDS011;28372;56.832;60.658;2023-06-14T08:36:10;4.38;;;1.58;;
42726;SDS011;28372;56.832;60.658;2023-06-14T08:38:39;5.45;;;1.80;;
42726;SDS011;28372;56.832;60.658;2023-06-14T08:41:06;4.63;;;1.80;;
42726;SDS011;28372;56.832;60.658;2023-06-14T08:43:40;5.20;;;2.08;;
42726;SDS011;28372;56.832;60.658;2023-06-14T08:46:07;7.35;;;1.85;;
42726;SDS011;28372;56.832;60.658;2023-06-14T08:48:38;3.83;;;1.80;;
42726;SDS011;28372;56.832;60.658;2023-06-14T08:51:06;3.55;;;1.80;;
42726;SDS011;28372;56.832;60.658;2023-06-14T08:53:37;6.57;;;2.00;;
42726;SDS011;28372;56.832;60.658;2023-06-14T08:56:09;8.07;;;1.77;;
42726;SDS011;28372;56.832;60.658;2023-06-14T08:58:43;6.78;;;1.80;;
42726;SDS011;28372;56.832;60.658;2023-06-14T09:01:12;5.13;;;1.55;;
42726;SDS011;28372;56.832;60.658;2023-06-14T09:03:41;3.00;;;1.75;;
42726;SDS011;28372;56.832;60.658;2023-06-14T09:06:09;5.22;;;2.05;;
42726;SDS011;28372;56.832;60.658;2023-06-14T09:08:41;6.30;;;1.83;;
42726;SDS011;28372;56.832;60.658;2023-06-14T09:11:11;8.23;;;1.95;;
42726;SDS011;28372;56.832;60.658;2023-06-14T09:13:40;5.60;;;1.70;;
42726;SDS011;28372;56.832;60.658;2023-06-14T09:16:08;2.85;;;1.70;;
42726;SDS011;28372;56.832;60.658;2023-06-14T09:18:40;4.13;;;1.80;;
42726;SDS011;28372;56.832;60.658;2023-06-14T09:21:11;6.28;;;2.10;;
42726;SDS011;28372;56.832;60.658;2023-06-14T09:23:40;4.28;;;2.00;;
42726;SDS011;28372;56.832;60.658;2023-06-14T09:26:09;3.88;;;1.73;;
42726;SDS011;28372;56.832;60.658;2023-06-14T09:28:43;4.93;;;1.98;;
42726;SDS011;28372;56.832;60.658;2023-06-14T09:31:16;6.93;;;1.90;;
42726;SDS011;28372;56.832;60.658;2023-06-14T09:33:45;7.68;;;2.05;;
42726;SDS011;28372;56.832;60.658;2023-06-14T09:36:17;6.43;;;2.17;;
42726;SDS011;28372;56.832;60.658;2023-06-14T09:38:56;3.63;;;2.10;;
42726;SDS011;28372;56.832;60.658;2023-06-14T09:41:35;3.53;;;1.88;;
42726;SDS011;28372;56.832;60.658;2023-06-14T09:44:04;3.15;;;1.67;;
42726;SDS011;28372;56.832;60.658;2023-06-14T09:46:40;6.15;;;2.03;;
42726;SDS011;28372;56.832;60.658;2023-06-14T09:49:08;4.90;;;2.17;;
42726;SDS011;28372;56.832;60.658;2023-06-14T09:51:36;6.38;;;2.25;;
42726;SDS011;28372;56.832;60.658;2023-06-14T09:54:15;3.75;;;2.00;;
42726;SDS011;28372;56.832;60.658;2023-06-14T09:56:47;8.23;;;1.98;;
42726;SDS011;28372;56.832;60.658;2023-06-14T10:01:47;6.43;;;1.83;;
42726;SDS011;28372;56.832;60.658;2023-06-14T10:04:16;5.47;;;1.77;;
42726;SDS011;28372;56.832;60.658;2023-06-14T10:06:47;4.55;;;1.98;;
42726;SDS011;28372;56.832;60.658;2023-06-14T10:09:17;5.82;;;1.80;;
42726;SDS011;28372;56.832;60.658;2023-06-14T10:11:45;5.00;;;1.95;;
42726;SDS011;28372;56.832;60.658;2023-06-14T10:14:13;6.40;;;1.90;;
42726;SDS011;28372;56.832;60.658;2023-06-14T10:16:54;5.00;;;2.08;;
42726;SDS011;28372;56.832;60.658;2023-06-14T10:19:34;5.55;;;1.88;;
42726;SDS011;28372;56.832;60.658;2023-06-14T10:22:11;11.30;;;1.83;;
42726;SDS011;28372;56.832;60.658;2023-06-14T10:24:52;6.70;;;2.00;;
42726;SDS011;28372;56.832;60.658;2023-06-14T10:27:20;5.25;;;2.10;;
42726;SDS011;28372;56.832;60.658;2023-06-14T10:32:22;5.70;;;2.03;;
42726;SDS011;28372;56.832;60.658;2023-06-14T10:34:56;5.72;;;1.92;;
42726;SDS011;28372;56.832;60.658;2023-06-14T10:37:27;6.30;;;2.10;;
42726;SDS011;28372;56.832;60.658;2023-06-14T10:39:55;5.18;;;2.22;;
42726;SDS011;28372;56.832;60.658;2023-06-14T10:42:27;6.68;;;2.22;;
42726;SDS011;28372;56.832;60.658;2023-06-14T10:44:58;4.72;;;1.85;;
42726;SDS011;28372;56.832;60.658;2023-06-14T10:47:31;8.23;;;2.17;;
42726;SDS011;28372;56.832;60.658;2023-06-14T10:50:03;3.17;;;1.50;;
42726;SDS011;28372;56.832;60.658;2023-06-14T10:52:38;4.45;;;1.80;;
42726;SDS011;28372;56.832;60.658;2023-06-14T10:55:12;5.18;;;1.70;;
42726;SDS011;28372;56.832;60.658;2023-06-14T11:00:20;6.25;;;2.08;;
42726;SDS011;28372;56.832;60.658;2023-06-14T11:05:54;5.20;;;1.70;;
42726;SDS011;28372;56.832;60.658;2023-06-14T11:11:07;5.90;;;1.90;;
42726;SDS011;28372;56.832;60.658;2023-06-14T11:13:42;5.45;;;2.05;;
42726;SDS011;28372;56.832;60.658;2023-06-14T11:16:13;6.20;;;1.80;;
42726;SDS011;28372;56.832;60.658;2023-06-14T11:18:42;8.18;;;2.00;;
42726;SDS011;28372;56.832;60.658;2023-06-14T11:21:15;7.93;;;1.90;;
42726;SDS011;28372;56.832;60.658;2023-06-14T11:23:53;6.07;;;2.05;;
42726;SDS011;28372;56.832;60.658;2023-06-14T11:28:54;6.00;;;2.00;;
42726;SDS011;28372;56.832;60.658;2023-06-14T11:31:25;4.25;;;1.88;;
42726;SDS011;28372;56.832;60.658;2023-06-14T11:33:57;3.88;;;1.85;;
42726;SDS011;28372;56.832;60.658;2023-06-14T11:36:26;5.57;;;1.90;;
42726;SDS011;28372;56.832;60.658;2023-06-14T11:39:01;5.82;;;2.10;;
42726;SDS011;28372;56.832;60.658;2023-06-14T11:41:37;7.25;;;1.80;;
42726;SDS011;28372;56.832;60.658;2023-06-14T11:44:06;7.18;;;1.92;;
42726;SDS011;28372;56.832;60.658;2023-06-14T11:46:34;5.45;;;2.05;;
42726;SDS011;28372;56.832;60.658;2023-06-14T11:49:03;9.63;;;2.28;;
42726;SDS011;28372;56.832;60.658;2023-06-14T11:51:32;7.65;;;2.10;;
42726;SDS011;28372;56.832;60.658;2023-06-14T11:54:01;9.90;;;2.05;;
42726;SDS011;28372;56.832;60.658;2023-06-14T11:56:30;9.90;;;2.20;;
42726;SDS011;28372;56.832;60.658;2023-06-14T11:58:59;4.68;;;2.30;;
42726;SDS011;28372;56.832;60.658;2023-06-14T12:01:29;9.02;;;2.50;;
42726;SDS011;28372;56.832;60.658;2023-06-14T12:03:57;5.07;;;2.20;;
42726;SDS011;28372;56.832;60.658;2023-06-14T12:06:27;4.50;;;2.00;;
42726;SDS011;28372;56.832;60.658;2023-06-14T12:08:56;4.05;;;2.15;;
42726;SDS011;28372;56.832;60.658;2023-06-14T12:11:27;5.50;;;1.98;;
42726;SDS011;28372;56.832;60.658;2023-06-14T12:13:59;4.88;;;2.10;;
42726;SDS011;28372;56.832;60.658;2023-06-14T12:16:34;8.63;;;2.47;;
42726;SDS011;28372;56.832;60.658;2023-06-14T12:19:12;7.43;;;2.30;;
42726;SDS011;28372;56.832;60.658;2023-06-14T12:21:42;5.95;;;2.10;;
42726;SDS011;28372;56.832;60.658;2023-06-14T12:24:14;10.35;;;2.17;;
42726;SDS011;28372;56.832;60.658;2023-06-14T12:26:42;9.38;;;2.40;;
42726;SDS011;28372;56.832;60.658;2023-06-14T12:29:09;11.70;;;2.42;;
42726;SDS011;28372;56.832;60.658;2023-06-14T12:31:40;8.70;;;2.20;;
42726;SDS011;28372;56.832;60.658;2023-06-14T12:34:09;8.48;;;2.53;;
42726;SDS011;28372;56.832;60.658;2023-06-14T12:36:37;11.23;;;2.65;;
42726;SDS011;28372;56.832;60.658;2023-06-14T12:39:12;4.97;;;2.08;;
42726;SDS011;28372;56.832;60.658;2023-06-14T12:41:40;5.68;;;2.25;;
42726;SDS011;28372;56.832;60.658;2023-06-14T12:44:09;4.95;;;2.15;;
42726;SDS011;28372;56.832;60.658;2023-06-14T12:46:43;4.88;;;2.10;;
42726;SDS011;28372;56.832;60.658;2023-06-14T12:49:11;8.25;;;2.70;;
42726;SDS011;28372;56.832;60.658;2023-06-14T12:51:39;6.00;;;2.40;;
42726;SDS011;28372;56.832;60.658;2023-06-14T12:54:08;6.20;;;2.38;;
42726;SDS011;28372;56.832;60.658;2023-06-14T12:56:36;9.20;;;2.40;;
42726;SDS011;28372;56.832;60.658;2023-06-14T12:59:04;9.85;;;2.53;;
42726;SDS011;28372;56.832;60.658;2023-06-14T13:01:33;5.55;;;2.40;;
42726;SDS011;28372;56.832;60.658;2023-06-14T13:04:00;7.65;;;2.40;;
42726;SDS011;28372;56.832;60.658;2023-06-14T13:06:28;5.53;;;2.30;;
42726;SDS011;28372;56.832;60.658;2023-06-14T13:08:58;5.88;;;2.00;;
42726;SDS011;28372;56.832;60.658;2023-06-14T13:11:26;4.63;;;2.10;;
42726;SDS011;28372;56.832;60.658;2023-06-14T13:13:54;9.43;;;2.28;;
42726;SDS011;28372;56.832;60.658;2023-06-14T13:16:22;7.88;;;2.17;;
42726;SDS011;28372;56.832;60.658;2023-06-14T13:18:50;6.55;;;2.45;;
42726;SDS011;28372;56.832;60.658;2023-06-14T13:21:17;6.35;;;2.28;;
42726;SDS011;28372;56.832;60.658;2023-06-14T13:23:45;6.05;;;2.50;;
42726;SDS011;28372;56.832;60.658;2023-06-14T13:26:13;5.30;;;1.98;;
42726;SDS011;28372;56.832;60.658;2023-06-14T13:28:40;8.13;;;2.67;;
42726;SDS011;28372;56.832;60.658;2023-06-14T13:31:09;6.00;;;1.83;;
42726;SDS011;28372;56.832;60.658;2023-06-14T13:33:37;8.23;;;2.60;;
42726;SDS011;28372;56.832;60.658;2023-06-14T13:36:05;10.63;;;2.10;;
42726;SDS011;28372;56.832;60.658;2023-06-14T13:38:32;7.57;;;2.30;;
42726;SDS011;28372;56.832;60.658;2023-06-14T13:41:00;6.50;;;1.98;;
42726;SDS011;28372;56.832;60.658;2023-06-14T13:43:28;6.65;;;2.03;;
42726;SDS011;28372;56.832;60.658;2023-06-14T13:45:56;5.43;;;2.00;;
42726;SDS011;28372;56.832;60.658;2023-06-14T13:48:24;8.60;;;2.10;;
42726;SDS011;28372;56.832;60.658;2023-06-14T13:50:51;10.40;;;2.28;;
42726;SDS011;28372;56.832;60.658;2023-06-14T13:53:19;7.05;;;2.08;;
42726;SDS011;28372;56.832;60.658;2023-06-14T13:55:47;8.80;;;2.20;;
42726;SDS011;28372;56.832;60.658;2023-06-14T13:58:15;11.48;;;2.33;;
42726;SDS011;28372;56.832;60.658;2023-06-14T14:00:43;7.43;;;2.33;;
42726;SDS011;28372;56.832;60.658;2023-06-14T14:03:11;10.05;;;2.10;;
42726;SDS011;28372;56.832;60.658;2023-06-14T14:05:38;7.65;;;2.25;;
42726;SDS011;28372;56.832;60.658;2023-06-14T14:08:06;6.50;;;1.92;;
42726;SDS011;28372;56.832;60.658;2023-06-14T14:10:34;10.20;;;3.72;;
42726;SDS011;28372;56.832;60.658;2023-06-14T14:13:02;6.57;;;2.60;;
42726;SDS011;28372;56.832;60.658;2023-06-14T14:15:29;5.97;;;2.20;;
42726;SDS011;28372;56.832;60.658;2023-06-14T14:17:57;6.70;;;2.28;;
42726;SDS011;28372;56.832;60.658;2023-06-14T14:20:25;4.85;;;1.70;;
42726;SDS011;28372;56.832;60.658;2023-06-14T14:22:53;5.05;;;1.90;;
42726;SDS011;28372;56.832;60.658;2023-06-14T14:25:20;5.95;;;1.92;;
42726;SDS011;28372;56.832;60.658;2023-06-14T14:27:48;7.72;;;1.90;;
42726;SDS011;28372;56.832;60.658;2023-06-14T14:30:16;8.18;;;2.15;;
42726;SDS011;28372;56.832;60.658;2023-06-14T14:32:45;12.73;;;2.63;;
42726;SDS011;28372;56.832;60.658;2023-06-14T14:35:15;7.18;;;2.50;;
42726;SDS011;28372;56.832;60.658;2023-06-14T14:37:44;7.68;;;2.53;;
42726;SDS011;28372;56.832;60.658;2023-06-14T14:40:12;11.60;;;2.00;;
42726;SDS011;28372;56.832;60.658;2023-06-14T14:42:40;7.15;;;1.95;;
42726;SDS011;28372;56.832;60.658;2023-06-14T14:45:07;9.68;;;2.10;;
42726;SDS011;28372;56.832;60.658;2023-06-14T14:47:36;7.95;;;1.90;;
42726;SDS011;28372;56.832;60.658;2023-06-14T14:50:03;7.82;;;1.60;;
42726;SDS011;28372;56.832;60.658;2023-06-14T14:52:35;3.95;;;1.55;;
42726;SDS011;28372;56.832;60.658;2023-06-14T14:55:03;4.80;;;1.60;;
42726;SDS011;28372;56.832;60.658;2023-06-14T14:57:31;12.13;;;1.90;;
42726;SDS011;28372;56.832;60.658;2023-06-14T14:59:59;6.63;;;1.77;;
42726;SDS011;28372;56.832;60.658;2023-06-14T15:02:29;8.35;;;2.10;;
42726;SDS011;28372;56.832;60.658;2023-06-14T15:04:57;8.45;;;2.38;;
42726;SDS011;28372;56.832;60.658;2023-06-14T15:07:29;7.05;;;2.00;;